Time;durP1;ratioP1;P1;durP2;ratioP2;P2;SDS_P1;SDS_P2;PMS_P1;PMS_P2;Temp;Humidity;BMP_temperature;BMP_pressure;BME280_temperature;BME280_humidity;BME280_pressure;Samples;Min_cycle;Max_cycle;Signal;HPM_P1;HPM_P2
2023/06/24 00:03:02;;;;;;;42.90;28.10;;;;;;;23.00;100.00;98958.41;135703;1279;22539;-75
2023/06/24 00:06:05;;;;;;;43.20;28.40;;;;;;;23.10;100.00;98956.75;135482;1279;22536;-66
2023/06/24 00:09:07;;;;;;;46.60;29.40;;;;;;;23.06;100.00;98963.99;135620;1279;24076;-64
2023/06/24 00:12:10;;;;;;;46.30;29.00;;;;;;;-7.24;79.80;79173.36;134931;1279;1002328;-67
2023/06/24 00:15:12;;;;;;;45.70;28.50;;;;;;;22.89;100.00;98967.40;135648;1279;22534;-66
2023/06/24 00:18:14;;;;;;;49.70;29.70;;;;;;;22.88;100.00;98956.30;135708;1279;22557;-65
2023/06/24 00:21:17;;;;;;;46.60;29.40;;;;;;;22.84;100.00;98948.55;135669;1278;23359;-65
2023/06/24 00:24:21;;;;;;;47.40;30.00;;;;;;;22.82;100.00;98950.86;135702;1279;25266;-64
2023/06/24 00:27:23;;;;;;;45.50;28.90;;;;;;;22.84;100.00;98949.35;135617;1270;22998;-64
2023/06/24 00:30:26;;;;;;;44.40;29.20;;;;;;;22.80;100.00;98955.08;135649;1278;22552;-65
2023/06/24 00:33:28;;;;;;;46.50;28.20;;;;;;;22.86;100.00;98954.25;135665;1279;22543;-65
2023/06/24 00:36:31;;;;;;;48.40;30.30;;;;;;;22.79;100.00;98953.93;135648;1261;22513;-67
2023/06/24 00:39:34;;;;;;;45.30;28.50;;;;;;;22.81;100.00;98953.16;135425;1279;22552;-65
2023/06/24 00:42:36;;;;;;;46.90;29.50;;;;;;;22.78;100.00;98952.40;135660;1279;22647;-66
2023/06/24 00:45:39;;;;;;;45.90;29.80;;;;;;;22.81;100.00;98952.72;135660;1279;22537;-71
2023/06/24 00:48:41;;;;;;;46.90;29.70;;;;;;;22.81;100.00;98951.85;135681;1279;22530;-65
2023/06/24 00:51:47;;;;;;;48.80;29.90;;;;;;;22.88;100.00;98955.73;135673;1279;22530;-66
2023/06/24 00:54:49;;;;;;;49.40;29.90;;;;;;;22.95;100.00;98959.30;135657;1279;22553;-68
2023/06/24 00:57:52;;;;;;;48.30;30.10;;;;;;;22.99;100.00;98957.05;135674;1279;22671;-66
2023/06/24 01:00:57;;;;;;;47.60;29.40;;;;;;;23.01;100.00;98961.98;135643;1279;22534;-66
2023/06/24 01:04:00;;;;;;;44.00;28.60;;;;;;;22.83;100.00;98966.23;135681;1279;22571;-70
2023/06/24 01:07:02;;;;;;;42.80;27.40;;;;;;;22.80;100.00;98970.20;135696;1279;22563;-65
2023/06/24 01:10:05;;;;;;;44.30;27.60;;;;;;;22.72;100.00;98978.54;135650;1261;22538;-66
2023/06/24 01:13:08;;;;;;;45.80;28.00;;;;;;;22.56;100.00;98978.73;135646;1279;22533;-64
2023/06/24 01:16:10;;;;;;;45.20;28.50;;;;;;;22.53;100.00;98977.44;135620;1278;22585;-65
2023/06/24 01:19:13;;;;;;;44.90;27.50;;;;;;;22.47;100.00;98974.53;135366;1279;22555;-70
2023/06/24 01:22:17;;;;;;;43.50;26.90;;;;;;;22.53;100.00;98974.44;135618;1279;22531;-65
2023/06/24 01:25:19;;;;;;;44.10;26.10;;;;;;;22.56;100.00;98975.17;135670;1279;22576;-64
2023/06/24 01:28:22;;;;;;;43.10;27.80;;;;;;;22.56;100.00;98977.95;135703;1265;22553;-65
2023/06/24 01:31:25;;;;;;;46.60;27.20;;;;;;;22.44;100.00;98977.97;135643;1279;22526;-64
2023/06/24 01:34:27;;;;;;;42.00;26.80;;;;;;;22.42;100.00;98979.14;135695;1279;22538;-64
2023/06/24 01:37:30;;;;;;;45.70;28.30;;;;;;;22.34;100.00;98974.98;135647;1279;22576;-64
2023/06/24 01:40:32;;;;;;;43.80;27.60;;;;;;;22.41;100.00;98979.97;135540;1279;22533;-67
2023/06/24 01:43:35;;;;;;;44.70;28.30;;;;;;;22.54;100.00;98983.55;135638;1279;22515;-68
2023/06/24 01:46:37;;;;;;;45.40;27.30;;;;;;;22.54;100.00;98972.09;135667;1279;22533;-66
2023/06/24 01:49:40;;;;;;;45.20;26.70;;;;;;;22.55;100.00;98970.95;135642;1278;22628;-66
2023/06/24 01:52:42;;;;;;;46.80;27.80;;;;;;;22.52;100.00;98966.11;135696;1279;25410;-72
2023/06/24 01:55:45;;;;;;;46.60;29.00;;;;;;;22.53;100.00;98967.58;135635;1279;22583;-66
2023/06/24 01:58:47;;;;;;;45.30;28.70;;;;;;;22.57;100.00;98970.33;135520;1279;23356;-68
2023/06/24 02:01:49;;;;;;;47.30;29.40;;;;;;;22.50;100.00;98970.45;135568;1279;22534;-66
2023/06/24 02:04:52;;;;;;;47.30;29.00;;;;;;;22.44;100.00;98971.83;135664;1261;22520;-68
2023/06/24 02:07:54;;;;;;;50.00;29.40;;;;;;;22.35;100.00;98973.27;135664;1279;22527;-67
2023/06/24 02:10:57;;;;;;;46.80;29.00;;;;;;;22.34;100.00;98985.20;135607;1279;22537;-67
2023/06/24 02:13:59;;;;;;;46.50;29.90;;;;;;;22.29;100.00;98994.77;135542;1279;25237;-64
2023/06/24 02:17:01;;;;;;;49.10;30.60;;;;;;;22.31;100.00;99006.33;135319;1279;24377;-64
2023/06/24 02:20:05;;;;;;;45.20;28.70;;;;;;;22.30;100.00;99013.55;135611;1279;22539;-65
2023/06/24 02:23:08;;;;;;;49.50;29.50;;;;;;;22.29;100.00;99013.55;135536;1278;22588;-66
2023/06/24 02:26:10;;;;;;;48.40;29.40;;;;;;;22.29;100.00;99013.73;135624;1279;22558;-64
2023/06/24 02:29:13;;;;;;;48.20;29.30;;;;;;;22.35;100.00;99017.88;135647;1279;22519;-66
2023/06/24 02:32:15;;;;;;;47.60;29.40;;;;;;;22.37;100.00;99022.60;135641;1279;25326;-64
2023/06/24 02:35:17;;;;;;;48.70;30.40;;;;;;;22.36;100.00;99027.69;135665;1278;22550;-67
2023/06/24 02:38:20;;;;;;;44.50;26.30;;;;;;;22.46;100.00;99030.35;135638;1261;22551;-69
2023/06/24 02:41:22;;;;;;;47.70;26.30;;;;;;;22.40;100.00;99030.81;135632;1279;22538;-65
2023/06/24 02:44:25;;;;;;;49.30;26.00;;;;;;;22.21;100.00;99025.67;135321;1279;23293;-65
2023/06/24 02:47:27;;;;;;;43.70;26.90;;;;;;;22.10;100.00;99024.40;135583;1279;22525;-64
2023/06/24 02:50:29;;;;;;;44.60;26.90;;;;;;;22.13;100.00;99022.44;135606;1256;22533;-65
2023/06/24 02:53:32;;;;;;;45.20;26.90;;;;;;;22.19;100.00;99019.89;135670;1278;22531;-66
2023/06/24 02:56:34;;;;;;;45.30;25.50;;;;;;;22.24;100.00;99022.17;135679;1278;22548;-70
2023/06/24 02:59:37;;;;;;;39.40;23.10;;;;;;;22.31;100.00;99020.91;135716;1279;22538;-65
2023/06/24 03:02:39;;;;;;;47.10;24.40;;;;;;;22.22;100.00;99016.83;135714;1278;22536;-65
2023/06/24 03:05:44;;;;;;;40.90;23.20;;;;;;;22.00;100.00;99013.09;135695;1261;22553;-66
2023/06/24 03:08:46;;;;;;;40.60;22.70;;;;;;;21.84;100.00;99012.38;135668;1278;25604;-68
2023/06/24 03:11:49;;;;;;;40.80;22.20;;;;;;;21.75;100.00;99011.64;135704;1279;22519;-68
2023/06/24 03:14:53;;;;;;;38.00;21.40;;;;;;;21.70;100.00;99014.33;135703;1278;22538;-67
2023/06/24 03:17:56;;;;;;;31.90;16.00;;;;;;;21.70;100.00;99018.53;135696;1279;22635;-65
2023/06/24 03:20:59;;;;;;;29.30;14.00;;;;;;;21.64;100.00;99018.84;135690;1279;22562;-65
2023/06/24 03:24:01;;;;;;;25.60;10.50;;;;;;;21.60;100.00;99017.42;135645;1278;22563;-66
2023/06/24 03:27:03;;;;;;;22.10;9.90;;;;;;;21.54;100.00;99027.67;135618;1278;22546;-66
2023/06/24 03:30:06;;;;;;;24.50;9.50;;;;;;;21.48;100.00;99036.14;135668;1279;22542;-68
2023/06/24 03:33:08;;;;;;;21.30;8.70;;;;;;;21.52;100.00;99041.02;135349;1278;22731;-65
2023/06/24 03:36:11;;;;;;;22.50;8.80;;;;;;;21.52;100.00;99045.34;135596;1279;22553;-66
2023/06/24 03:39:13;;;;;;;21.80;8.90;;;;;;;21.51;100.00;99045.98;135708;1260;22520;-66
2023/06/24 03:42:15;;;;;;;22.00;8.60;;;;;;;21.71;100.00;99040.15;135653;1278;22539;-65
2023/06/24 03:45:18;;;;;;;20.50;8.20;;;;;;;21.77;100.00;99035.84;135688;1279;22526;-65
2023/06/24 03:48:20;;;;;;;22.90;9.00;;;;;;;21.88;100.00;99037.38;135726;1278;22542;-64
2023/06/24 03:51:23;;;;;;;22.70;8.50;;;;;;;21.75;100.00;99042.74;135658;1278;22552;-68
2023/06/24 03:54:25;;;;;;;22.90;8.70;;;;;;;21.70;100.00;99050.02;135657;1279;24264;-67
2023/06/24 03:57:27;;;;;;;23.70;8.80;;;;;;;21.72;100.00;99054.17;135669;1260;23145;-65
2023/06/24 04:00:30;;;;;;;23.40;8.70;;;;;;;21.73;100.00;99060.27;135698;1278;22606;-66
2023/06/24 04:03:32;;;;;;;24.50;9.10;;;;;;;21.68;100.00;99065.29;135714;1278;22524;-67
2023/06/24 04:06:35;;;;;;;22.50;8.80;;;;;;;21.68;100.00;99073.77;135650;1278;22526;-67
2023/06/24 04:09:37;;;;;;;25.90;8.60;;;;;;;21.71;100.00;99073.42;135689;1278;22550;-67
2023/06/24 04:12:41;;;;;;;23.00;9.20;;;;;;;21.52;100.00;99076.98;135684;1278;22550;-66
2023/06/24 04:15:43;;;;;;;22.10;8.80;;;;;;;21.40;100.00;99079.61;135668;1278;22563;-66
2023/06/24 04:18:45;;;;;;;21.90;9.70;;;;;;;21.58;100.00;99082.61;135668;1279;22535;-67
2023/06/24 04:21:48;;;;;;;24.00;8.90;;;;;;;21.72;100.00;99080.17;135633;1278;22549;-64
2023/06/24 04:24:50;;;;;;;22.30;9.20;;;;;;;21.71;100.00;99075.79;135673;1268;24383;-68
2023/06/24 04:27:53;;;;;;;23.50;8.60;;;;;;;21.69;100.00;99080.19;135654;1278;22551;-72
2023/06/24 04:30:55;;;;;;;22.60;8.70;;;;;;;21.72;100.00;99089.40;135716;1278;22526;-66
2023/06/24 04:33:57;;;;;;;24.90;8.80;;;;;;;21.71;100.00;99092.54;135735;1278;22526;-64
2023/06/24 04:37:00;;;;;;;25.20;9.30;;;;;;;21.65;100.00;99085.48;135694;1279;25236;-64
2023/06/24 04:40:03;;;;;;;21.50;7.90;;;;;;;21.72;100.00;99087.20;135661;1278;22557;-66
2023/06/24 04:43:05;;;;;;;21.90;8.40;;;;;;;21.75;100.00;99094.05;135706;1269;22575;-67
2023/06/24 04:46:08;;;;;;;22.00;8.50;;;;;;;21.72;100.00;99097.16;135451;1278;22544;-65
2023/06/24 04:49:10;;;;;;;22.70;8.30;;;;;;;21.84;100.00;99107.02;135487;1278;22665;-64
2023/06/24 04:52:13;;;;;;;22.00;8.00;;;;;;;21.82;100.00;99113.45;135710;1279;22522;-65
2023/06/24 04:55:16;;;;;;;20.90;8.00;;;;;;;21.75;100.00;99117.73;135363;1279;22577;-63
2023/06/24 04:58:18;;;;;;;21.60;7.80;;;;;;;21.88;100.00;99117.09;135686;1278;22530;-64
2023/06/24 05:01:21;;;;;;;24.60;8.50;;;;;;;21.95;100.00;99119.33;135731;1279;22604;-65
2023/06/24 05:04:23;;;;;;;21.80;8.10;;;;;;;21.89;100.00;99123.73;135713;1279;22520;-64
2023/06/24 05:07:26;;;;;;;20.10;7.60;;;;;;;21.76;100.00;99125.66;135701;1278;22899;-66
2023/06/24 05:10:28;;;;;;;22.80;8.50;;;;;;;21.87;100.00;99127.55;135689;1278;22534;-66
2023/06/24 05:13:30;;;;;;;20.70;8.30;;;;;;;21.82;100.00;99133.54;135663;1260;22575;-64
2023/06/24 05:16:33;;;;;;;21.40;7.90;;;;;;;21.91;100.00;99134.98;135673;1278;22538;-64
2023/06/24 05:19:35;;;;;;;22.10;8.20;;;;;;;21.91;100.00;99142.03;135425;1278;22560;-66
2023/06/24 05:22:38;;;;;;;22.30;7.90;;;;;;;21.77;100.00;99145.23;135553;1261;22543;-71
2023/06/24 05:25:40;;;;;;;21.40;7.90;;;;;;;21.78;100.00;99150.00;135441;1278;22558;-65
2023/06/24 05:28:42;;;;;;;21.80;7.50;;;;;;;21.84;100.00;99144.93;135695;1278;22523;-65
2023/06/24 05:31:46;;;;;;;21.50;7.60;;;;;;;21.97;100.00;99144.09;134907;1278;1003778;-65
2023/06/24 05:34:48;;;;;;;21.40;7.30;;;;;;;22.06;100.00;99145.51;135702;1278;22522;-64
2023/06/24 05:37:51;;;;;;;19.90;7.70;;;;;;;22.22;100.00;99144.91;135701;1278;24047;-65
2023/06/24 05:40:53;;;;;;;22.60;7.90;;;;;;;22.56;100.00;99152.04;135689;1278;24241;-66
2023/06/24 05:43:55;;;;;;;20.00;7.30;;;;;;;22.43;100.00;99156.65;135733;1278;22530;-67
2023/06/24 05:46:58;;;;;;;22.20;7.40;;;;;;;22.37;100.00;99164.56;135699;1278;22574;-65
2023/06/24 05:50:00;;;;;;;23.50;8.10;;;;;;;22.26;100.00;99164.60;135754;1278;22807;-66
2023/06/24 05:53:03;;;;;;;19.80;7.50;;;;;;;22.21;100.00;99171.52;135694;1278;23897;-65
2023/06/24 05:56:05;;;;;;;20.90;7.50;;;;;;;22.10;100.00;99169.84;135749;1278;22527;-66
2023/06/24 05:59:07;;;;;;;19.40;7.40;;;;;;;22.14;100.00;99174.33;135612;1278;22547;-65
2023/06/24 06:02:10;;;;;;;20.70;7.00;;;;;;;22.06;100.00;99177.56;135742;1260;22539;-65
2023/06/24 06:05:12;;;;;;;19.70;6.80;;;;;;;22.14;100.00;99174.73;135508;1255;22802;-71
2023/06/24 06:08:15;;;;;;;19.90;7.70;;;;;;;22.33;100.00;99178.83;135688;1278;22559;-65
2023/06/24 06:11:17;;;;;;;19.90;6.90;;;;;;;22.25;100.00;99177.35;135708;1278;22552;-66
2023/06/24 06:14:19;;;;;;;22.00;7.30;;;;;;;22.25;100.00;99185.53;135622;1279;22520;-65
2023/06/24 06:17:22;;;;;;;20.20;6.90;;;;;;;22.35;100.00;99183.34;135716;1278;23385;-65
2023/06/24 06:20:24;;;;;;;19.10;6.80;;;;;;;22.40;100.00;99187.56;135769;1279;22561;-65
2023/06/24 06:23:27;;;;;;;19.70;6.80;;;;;;;22.44;100.00;99191.64;135727;1278;24268;-65
2023/06/24 06:26:29;;;;;;;21.50;6.90;;;;;;;22.45;100.00;99190.10;135693;1278;22532;-66
2023/06/24 06:29:32;;;;;;;23.00;7.20;;;;;;;22.50;100.00;99191.16;135726;1278;22554;-65
2023/06/24 06:32:34;;;;;;;18.50;6.60;;;;;;;22.42;100.00;99189.01;135698;1278;22514;-66
2023/06/24 06:35:37;;;;;;;20.30;6.80;;;;;;;22.37;100.00;99195.60;135700;1278;22987;-67
2023/06/24 06:38:39;;;;;;;18.90;6.80;;;;;;;22.46;100.00;99188.92;135706;1278;22550;-64
2023/06/24 06:41:41;;;;;;;20.30;6.50;;;;;;;22.66;100.00;99179.30;135695;1278;22534;-66
2023/06/24 06:44:44;;;;;;;19.40;6.50;;;;;;;22.83;100.00;99177.50;135669;1260;22529;-65
2023/06/24 06:47:46;;;;;;;20.70;6.80;;;;;;;22.99;100.00;99178.16;135686;1278;22641;-73
2023/06/24 06:50:49;;;;;;;19.00;6.50;;;;;;;23.13;100.00;99182.02;135445;1278;22685;-65
2023/06/24 06:53:51;;;;;;;18.60;6.40;;;;;;;23.13;100.00;99180.20;135489;1260;22547;-71
2023/06/24 06:56:55;;;;;;;17.10;6.00;;;;;;;23.33;100.00;99178.98;135633;1278;22520;-66
2023/06/24 06:59:58;;;;;;;20.00;6.70;;;;;;;23.38;100.00;99182.77;135695;1278;22539;-68
2023/06/24 07:03:00;;;;;;;20.90;7.00;;;;;;;23.33;100.00;99184.58;135675;1278;22526;-70
2023/06/24 07:06:03;;;;;;;18.00;6.70;;;;;;;23.24;100.00;99185.81;135679;1278;23946;-70
2023/06/24 07:09:05;;;;;;;23.00;6.40;;;;;;;23.32;100.00;99186.78;135690;1269;25459;-69
2023/06/24 07:12:08;;;;;;;20.10;5.90;;;;;;;23.30;100.00;99185.77;135705;1278;24873;-69
2023/06/24 07:15:10;;;;;;;19.10;6.80;;;;;;;23.32;100.00;99188.05;135650;1278;24311;-70
2023/06/24 07:18:13;;;;;;;19.00;6.60;;;;;;;23.27;100.00;99189.83;135644;1278;23911;-67
2023/06/24 07:21:15;;;;;;;18.70;6.50;;;;;;;23.24;100.00;99194.48;135670;1278;22527;-66
2023/06/24 07:24:18;;;;;;;19.80;6.40;;;;;;;23.22;100.00;99192.69;135685;1278;24235;-67
2023/06/24 07:27:20;;;;;;;18.80;6.10;;;;;;;23.30;100.00;99195.91;135657;1278;25385;-70
2023/06/24 07:30:22;;;;;;;17.60;6.30;;;;;;;23.38;100.00;99204.34;135669;1278;22558;-65
2023/06/24 07:33:25;;;;;;;17.30;6.20;;;;;;;23.41;100.00;99204.05;135655;1278;22562;-71
2023/06/24 07:36:27;;;;;;;19.70;6.40;;;;;;;23.49;100.00;99210.90;135603;1260;22563;-65
2023/06/24 07:39:30;;;;;;;19.90;6.00;;;;;;;23.63;100.00;99217.79;135322;1278;22734;-67
2023/06/24 07:42:32;;;;;;;21.00;6.10;;;;;;;23.74;100.00;99220.52;135485;1278;22547;-66
2023/06/24 07:45:34;;;;;;;19.50;6.30;;;;;;;23.78;100.00;99228.33;135690;1278;22533;-74
2023/06/24 07:48:37;;;;;;;18.20;6.20;;;;;;;23.85;100.00;99235.41;135662;1260;22535;-68
2023/06/24 07:51:39;;;;;;;18.60;6.50;;;;;;;23.88;100.00;99237.08;135695;1278;22542;-70
2023/06/24 07:54:42;;;;;;;18.30;6.20;;;;;;;24.04;100.00;99241.08;135654;1278;22540;-65
2023/06/24 07:57:44;;;;;;;17.80;6.10;;;;;;;24.10;100.00;99246.81;135644;1278;22549;-72
2023/06/24 08:00:47;;;;;;;17.90;6.20;;;;;;;24.15;100.00;99250.05;135698;1278;22563;-75
2023/06/24 08:03:49;;;;;;;18.00;5.60;;;;;;;24.22;100.00;99249.65;135672;1278;22521;-67
2023/06/24 08:06:51;;;;;;;16.00;5.30;;;;;;;24.18;100.00;99251.05;135656;1278;22974;-65
2023/06/24 08:09:54;;;;;;;17.50;5.60;;;;;;;24.22;100.00;99253.19;135673;1278;22550;-66
2023/06/24 08:12:56;;;;;;;18.80;5.90;;;;;;;24.44;100.00;99249.66;135606;1278;22623;-71
2023/06/24 08:15:59;;;;;;;18.00;5.40;;;;;;;24.34;100.00;99255.23;135698;1278;22556;-69
2023/06/24 08:19:01;;;;;;;18.50;5.40;;;;;;;24.38;100.00;99262.13;135676;1278;22520;-70
2023/06/24 08:22:04;;;;;;;17.80;5.20;;;;;;;24.34;100.00;99266.63;135640;1278;22614;-75
2023/06/24 08:25:06;;;;;;;16.50;5.00;;;;;;;24.38;100.00;99263.90;135668;1278;25393;-70
2023/06/24 08:28:08;;;;;;;16.40;5.30;;;;;;;24.37;100.00;99261.52;135464;1278;22582;-69
2023/06/24 08:31:11;;;;;;;15.00;5.30;;;;;;;24.40;100.00;99264.36;135596;1278;22526;-73
2023/06/24 08:34:13;;;;;;;16.80;5.30;;;;;;;24.50;100.00;99263.09;135704;1278;22541;-73
2023/06/24 08:37:16;;;;;;;16.10;5.20;;;;;;;24.59;100.00;99266.80;135635;1260;22562;-73
2023/06/24 08:40:18;;;;;;;16.90;5.60;;;;;;;24.71;100.00;99263.10;135690;1278;22593;-74
2023/06/24 08:43:20;;;;;;;18.20;6.10;;;;;;;25.07;100.00;99270.26;135718;1261;22523;-68
2023/06/24 08:46:23;;;;;;;17.40;5.50;;;;;;;25.26;100.00;99272.95;135641;1278;22546;-65
2023/06/24 08:49:25;;;;;;;16.00;5.50;;;;;;;25.40;100.00;99279.52;135560;1278;24397;-67
2023/06/24 08:52:28;;;;;;;17.50;6.00;;;;;;;25.29;100.00;99280.83;135671;1278;22565;-65
2023/06/24 08:55:30;;;;;;;17.80;6.30;;;;;;;25.25;100.00;99284.28;135491;1278;22536;-66
2023/06/24 08:58:33;;;;;;;16.20;5.60;;;;;;;25.20;100.00;99283.13;135640;1278;22549;-68
2023/06/24 09:01:35;;;;;;;18.10;5.80;;;;;;;25.25;100.00;99281.63;135669;1278;25336;-71
2023/06/24 09:04:38;;;;;;;17.00;6.10;;;;;;;25.23;100.00;99274.89;135701;1256;22616;-66
2023/06/24 09:07:40;;;;;;;21.60;6.50;;;;;;;25.22;100.00;99276.09;135666;1278;22542;-71
2023/06/24 09:10:43;;;;;;;17.40;6.30;;;;;;;25.12;100.00;99284.39;135658;1278;22596;-65
2023/06/24 09:13:45;;;;;;;18.60;5.90;;;;;;;25.04;100.00;99288.64;135598;1278;22529;-66
2023/06/24 09:16:47;;;;;;;17.30;5.90;;;;;;;25.01;100.00;99284.96;135682;1278;22543;-68
2023/06/24 09:19:50;;;;;;;17.50;6.40;;;;;;;24.86;100.00;99290.40;135697;1278;22529;-69
2023/06/24 09:22:52;;;;;;;19.20;6.40;;;;;;;24.59;100.00;99294.98;135505;1278;24331;-67
2023/06/24 09:25:55;;;;;;;20.50;7.10;;;;;;;24.66;100.00;99298.73;135383;1278;23003;-71
2023/06/24 09:28:57;;;;;;;18.30;6.10;;;;;;;24.70;100.00;99293.92;135616;1278;22584;-72
2023/06/24 09:32:00;;;;;;;20.30;6.40;;;;;;;24.86;100.00;99293.71;135596;1278;25267;-66
2023/06/24 09:35:02;;;;;;;19.10;7.10;;;;;;;24.94;100.00;99298.34;135644;1278;22538;-72
2023/06/24 09:38:05;;;;;;;19.60;7.60;;;;;;;24.72;100.00;99303.02;135661;1278;22535;-72
2023/06/24 09:41:07;;;;;;;20.00;7.30;;;;;;;24.56;100.00;99300.14;135657;1260;22526;-74
2023/06/24 09:44:10;;;;;;;18.90;7.00;;;;;;;24.58;100.00;99297.23;135649;1278;22527;-71
2023/06/24 09:47:12;;;;;;;20.90;7.30;;;;;;;24.47;100.00;99296.14;135562;1278;22522;-65
2023/06/24 09:50:15;;;;;;;19.50;7.20;;;;;;;24.57;100.00;99299.75;135618;1278;22525;-71
2023/06/24 09:53:17;;;;;;;19.40;7.70;;;;;;;24.50;100.00;99303.52;135702;1260;22703;-71
2023/06/24 09:56:20;;;;;;;22.30;9.30;;;;;;;24.42;100.00;99308.72;135679;1256;22734;-67
2023/06/24 09:59:22;;;;;;;19.60;8.30;;;;;;;24.46;100.00;99302.85;135660;1278;22552;-68
2023/06/24 10:02:25;;;;;;;19.60;7.80;;;;;;;24.53;100.00;99299.37;135564;1278;22523;-67
2023/06/24 10:05:27;;;;;;;20.70;7.80;;;;;;;24.47;100.00;99305.44;135663;1279;22607;-64
2023/06/24 10:08:30;;;;;;;19.60;7.60;;;;;;;24.60;100.00;99302.96;135540;1279;22527;-65
2023/06/24 10:11:32;;;;;;;19.70;7.50;;;;;;;24.68;100.00;99303.17;135640;1279;22560;-66
2023/06/24 10:14:43;;;;;;;20.80;8.00;;;;;;;24.70;100.00;99304.11;131244;1279;5403790;-67
2023/06/24 10:17:45;;;;;;;19.90;7.80;;;;;;;24.84;100.00;99307.79;135504;1278;22522;-66
2023/06/24 10:20:48;;;;;;;20.20;7.60;;;;;;;24.94;100.00;99311.11;135622;1278;22533;-67
2023/06/24 10:23:50;;;;;;;20.00;7.20;;;;;;;25.21;100.00;99313.37;135582;1261;22635;-66
2023/06/24 10:26:53;;;;;;;19.40;7.00;;;;;;;25.10;100.00;99313.29;135572;1279;23889;-67
2023/06/24 10:29:57;;;;;;;19.50;7.00;;;;;;;25.02;100.00;99318.06;135583;1280;22526;-64
2023/06/24 10:32:59;;;;;;;19.30;7.80;;;;;;;25.11;100.00;99315.77;135592;1261;22576;-65
2023/06/24 10:36:01;;;;;;;23.40;8.30;;;;;;;25.13;100.00;99316.33;135591;1280;22582;-67
2023/06/24 10:39:04;;;;;;;20.50;7.80;;;;;;;25.17;100.00;99312.08;135636;1278;24231;-67
2023/06/24 10:42:06;;;;;;;21.10;7.70;;;;;;;25.32;100.00;99311.21;135639;1276;22552;-68
2023/06/24 10:45:09;;;;;;;21.30;7.20;;;;;;;25.48;100.00;99310.38;135625;1278;22538;-68
2023/06/24 10:48:11;;;;;;;21.30;8.10;;;;;;;25.56;100.00;99311.17;135593;1278;22631;-64
2023/06/24 10:51:14;;;;;;;20.50;7.40;;;;;;;25.69;100.00;99315.56;135650;1278;22527;-71
2023/06/24 10:54:16;;;;;;;20.20;7.40;;;;;;;25.70;100.00;99318.38;135622;1278;22538;-68
2023/06/24 10:57:19;;;;;;;23.80;7.60;;;;;;;25.62;100.00;99316.62;135556;1262;22793;-68
2023/06/24 11:00:23;;;;;;;18.70;7.10;;;;;;;25.39;100.00;99323.59;135584;1278;22535;-64
2023/06/24 11:03:26;;;;;;;18.50;6.60;;;;;;;25.15;100.00;99319.61;135615;1278;22533;-64
2023/06/24 11:06:30;;;;;;;20.70;7.20;;;;;;;25.22;100.00;99315.37;135630;1278;22535;-68
2023/06/24 11:09:35;;;;;;;20.80;7.40;;;;;;;25.30;100.00;99313.15;135657;1278;25366;-65
2023/06/24 11:12:39;;;;;;;21.90;7.60;;;;;;;25.48;100.00;99316.45;135628;1278;22551;-68
2023/06/24 11:15:42;;;;;;;19.20;7.10;;;;;;;25.46;100.00;99315.45;135655;1278;22535;-67
2023/06/24 11:18:46;;;;;;;19.00;6.90;;;;;;;25.23;100.00;99313.19;135655;1278;22526;-69
2023/06/24 11:21:50;;;;;;;20.80;6.90;;;;;;;25.10;100.00;99320.61;135612;1278;26621;-66
2023/06/24 11:24:52;;;;;;;20.20;7.70;;;;;;;25.00;100.00;99320.25;135616;1278;25319;-63
2023/06/24 11:27:55;;;;;;;20.70;7.80;;;;;;;24.79;100.00;99318.83;135616;1278;22542;-71
2023/06/24 11:30:57;;;;;;;19.00;7.50;;;;;;;24.51;100.00;99324.89;135663;1278;22538;-69
2023/06/24 11:34:00;;;;;;;21.10;8.50;;;;;;;24.26;100.00;99328.65;135603;1278;22533;-70
2023/06/24 11:37:11;;;;;;;21.70;8.80;;;;;;;24.06;100.00;99328.75;135565;1272;22678;-65
2023/06/24 11:40:16;;;;;;;24.20;8.70;;;;;;;23.82;100.00;99332.34;135633;1278;22531;-64
2023/06/24 11:43:20;;;;;;;24.00;8.70;;;;;;;23.71;100.00;99334.23;135639;1278;22552;-65
2023/06/24 11:46:24;;;;;;;22.00;8.90;;;;;;;23.61;100.00;99334.55;135667;1278;22525;-66
2023/06/24 11:49:27;;;;;;;21.80;9.60;;;;;;;23.48;100.00;99333.66;135616;1278;22611;-66
2023/06/24 11:52:30;;;;;;;20.40;8.60;;;;;;;23.41;100.00;99336.19;135558;1278;22565;-65
2023/06/24 11:55:37;;;;;;;22.20;8.80;;;;;;;23.31;100.00;99333.58;135563;1278;23009;-70
2023/06/24 11:58:40;;;;;;;21.20;8.20;;;;;;;23.17;100.00;99334.87;135705;1278;22542;-70
2023/06/24 12:01:44;;;;;;;19.80;8.40;;;;;;;23.14;100.00;99335.79;135525;1278;22546;-67
2023/06/24 12:04:46;;;;;;;21.50;8.70;;;;;;;23.18;100.00;99334.87;135700;1278;22532;-65
2023/06/24 12:07:50;;;;;;;19.80;8.30;;;;;;;23.14;100.00;99338.13;135643;1262;22532;-70
2023/06/24 12:10:52;;;;;;;23.80;8.50;;;;;;;23.07;100.00;99338.66;135446;1278;22548;-64
2023/06/24 12:13:56;;;;;;;22.70;9.20;;;;;;;22.97;100.00;99343.09;135635;1278;25412;-69
2023/06/24 12:17:02;;;;;;;24.40;8.80;;;;;;;22.89;100.00;99348.94;135633;1278;25404;-65
2023/06/24 12:20:09;;;;;;;23.80;9.20;;;;;;;22.73;100.00;99348.45;135686;1278;22549;-70
2023/06/24 12:23:11;;;;;;;22.30;9.10;;;;;;;22.39;100.00;99356.38;135553;1278;22533;-67
2023/06/24 12:26:15;;;;;;;22.70;9.30;;;;;;;22.34;100.00;99355.80;135619;1278;22600;-64
2023/06/24 12:29:18;;;;;;;23.50;9.20;;;;;;;22.48;100.00;99357.83;135566;1278;22549;-71
2023/06/24 12:32:20;;;;;;;24.60;9.00;;;;;;;22.32;100.00;99358.34;135440;1278;22583;-68
2023/06/24 12:35:25;;;;;;;22.30;10.20;;;;;;;22.28;100.00;99360.09;135661;1278;22539;-68
2023/06/24 12:38:28;;;;;;;24.10;9.60;;;;;;;22.29;100.00;99362.04;135484;1278;25416;-69
2023/06/24 12:41:33;;;;;;;23.70;10.00;;;;;;;22.16;100.00;99366.00;135544;1278;22550;-66
2023/06/24 12:44:36;;;;;;;22.50;9.70;;;;;;;22.00;100.00;99366.90;135573;1278;22533;-68
2023/06/24 12:47:39;;;;;;;23.70;10.30;;;;;;;21.78;100.00;99365.66;135463;1278;22516;-72
2023/06/24 12:50:41;;;;;;;23.90;11.00;;;;;;;21.69;100.00;99375.77;135680;1278;22549;-70
2023/06/24 12:53:46;;;;;;;24.50;10.90;;;;;;;21.57;100.00;99376.50;135679;1278;25502;-70
2023/06/24 12:56:49;;;;;;;25.30;10.30;;;;;;;21.44;100.00;99380.15;135697;1278;22516;-68
2023/06/24 12:59:53;;;;;;;24.00;10.60;;;;;;;21.49;100.00;99375.24;135628;1278;23493;-63
2023/06/24 13:02:56;;;;;;;25.80;10.70;;;;;;;21.57;100.00;99383.05;135581;1278;22545;-64
2023/06/24 13:06:00;;;;;;;25.70;11.40;;;;;;;21.58;100.00;99386.36;135625;1278;24366;-68
2023/06/24 13:09:03;;;;;;;26.60;11.40;;;;;;;21.87;100.00;99386.48;135699;1278;22527;-65
2023/06/24 13:12:08;;;;;;;26.90;11.40;;;;;;;21.82;100.00;99388.05;135674;1278;22565;-65
2023/06/24 13:15:11;;;;;;;24.30;11.00;;;;;;;21.75;100.00;99391.28;135681;1278;24222;-69
2023/06/24 13:18:15;;;;;;;24.70;10.40;;;;;;;21.51;100.00;99391.42;135656;1278;22648;-67
2023/06/24 13:21:18;;;;;;;24.20;10.70;;;;;;;21.42;100.00;99395.49;135648;1278;22512;-66
2023/06/24 13:24:21;;;;;;;24.00;10.80;;;;;;;21.48;100.00;99395.08;135662;1278;22573;-65
2023/06/24 13:27:25;;;;;;;26.10;10.90;;;;;;;21.47;100.00;99393.76;135500;1279;22950;-64
2023/06/24 13:30:28;;;;;;;23.10;10.60;;;;;;;21.56;100.00;99394.48;135601;1279;22506;-69
2023/06/24 13:33:32;;;;;;;24.10;10.50;;;;;;;21.70;100.00;99397.40;135488;1278;22691;-64
2023/06/24 13:36:36;;;;;;;22.70;10.70;;;;;;;21.82;100.00;99396.25;135580;1278;22536;-65
2023/06/24 13:39:39;;;;;;;24.50;10.60;;;;;;;22.03;100.00;99399.34;135652;1278;22534;-69
2023/06/24 13:42:43;;;;;;;24.90;10.10;;;;;;;22.16;100.00;99397.13;135650;1278;22540;-64
2023/06/24 13:45:47;;;;;;;24.50;10.00;;;;;;;22.22;100.00;99398.11;135658;1278;22522;-68
2023/06/24 13:48:50;;;;;;;25.80;10.80;;;;;;;22.24;100.00;99394.38;135472;1278;24241;-67